createdAt,value
2019-02-10T06:33:50.654Z,1.63
2019-02-10T06:36:19.732Z,1.47
2019-02-10T06:38:48.822Z,1.03
2019-02-10T06:41:17.874Z,5.70
2019-02-10T06:43:46.935Z,4.40
2019-02-10T06:46:15.961Z,2.93
2019-02-10T06:48:44.987Z,2.40
2019-02-10T06:51:14.021Z,2.20
2019-02-10T06:53:43.114Z,2.20
2019-02-10T06:56:12.185Z,2.67
2019-02-10T06:58:41.222Z,2.53
2019-02-10T07:01:24.375Z,2.00
2019-02-10T07:04:05.501Z,2.60
2019-02-10T07:06:34.584Z,1.43
2019-02-10T07:09:04.282Z,2.13
2019-02-10T07:11:33.359Z,1.90
2019-02-10T07:14:03.440Z,1.40
2019-02-10T07:16:35.044Z,1.00
2019-02-10T07:19:39.770Z,2.27
2019-02-10T07:23:00.803Z,2.23
2019-02-10T07:26:06.062Z,3.00
2019-02-10T07:29:01.362Z,1.10
2019-02-10T07:31:51.841Z,1.53
2019-02-10T07:34:54.359Z,0.97
2019-02-10T07:38:19.655Z,0.87
2019-02-10T07:41:24.041Z,1.50
2019-02-10T07:44:24.223Z,1.13
2019-02-10T07:47:22.138Z,0.80
2019-02-10T07:50:29.550Z,0.87
2019-02-10T07:53:45.617Z,0.77
2019-02-10T07:56:56.993Z,1.00
2019-02-10T08:00:06.418Z,0.73
2019-02-10T08:02:57.016Z,2.60
2019-02-10T08:05:54.786Z,1.33
2019-02-10T08:09:11.346Z,0.90
2019-02-10T08:12:06.988Z,0.90
2019-02-10T08:15:17.977Z,1.80
2019-02-10T08:18:17.040Z,0.60
2019-02-10T08:21:21.174Z,0.70
2019-02-10T08:25:04.502Z,1.50
2019-02-10T08:28:01.375Z,0.80
2019-02-10T08:30:52.591Z,2.20
2019-02-10T08:34:03.821Z,0.87
2019-02-10T08:36:57.326Z,0.90
2019-02-10T08:39:46.220Z,0.87
2019-02-10T08:42:26.758Z,1.13
2019-02-10T08:45:20.840Z,0.53
2019-02-10T08:48:19.764Z,1.23
2019-02-10T08:51:31.397Z,0.90
2019-02-10T08:54:00.412Z,0.70
2019-02-10T08:56:29.610Z,1.27
2019-02-10T08:58:58.636Z,0.63
2019-02-10T09:01:27.720Z,0.63
2019-02-10T09:03:56.759Z,0.60
2019-02-10T09:06:25.856Z,0.90
2019-02-10T09:09:02.288Z,0.90
2019-02-10T09:11:25.647Z,1.07
2019-02-10T09:13:54.770Z,0.60
2019-02-10T09:16:23.799Z,1.00
2019-02-10T09:18:52.871Z,1.00
2019-02-10T09:21:21.946Z,0.70
2019-02-10T09:23:50.975Z,0.67
2019-02-10T09:26:19.973Z,0.90
2019-02-10T09:28:49.018Z,0.90
2019-02-10T09:31:18.066Z,0.80
2019-02-10T09:33:47.102Z,1.07
2019-02-10T09:36:16.237Z,0.90
2019-02-10T09:38:45.232Z,1.20
2019-02-10T09:41:14.364Z,1.93
2019-02-10T09:43:43.414Z,2.60
2019-02-10T09:46:12.460Z,1.43
2019-02-10T09:48:41.518Z,1.10
2019-02-10T09:51:10.604Z,0.90
2019-02-10T09:53:39.683Z,1.73
2019-02-10T09:56:10.554Z,2.60
2019-02-10T09:58:39.489Z,2.07
2019-02-10T10:01:08.536Z,1.07
2019-02-10T10:03:37.584Z,1.10
2019-02-10T10:06:06.595Z,2.20
2019-02-10T10:08:35.659Z,1.13
2019-02-10T10:11:04.719Z,1.83
2019-02-10T10:13:33.754Z,1.30
2019-02-10T10:16:02.815Z,0.77
2019-02-10T10:18:31.972Z,0.90
2019-02-10T10:21:01.011Z,1.17
2019-02-10T10:23:30.109Z,1.00
2019-02-10T10:25:59.140Z,1.00
2019-02-10T10:28:28.187Z,1.03
2019-02-10T10:30:57.204Z,1.47
2019-02-10T10:33:26.277Z,1.33
2019-02-10T10:35:55.260Z,0.87
2019-02-10T10:38:24.341Z,0.90
2019-02-10T10:40:53.659Z,0.50
2019-02-10T10:43:22.654Z,1.10
2019-02-10T10:45:51.678Z,1.50
2019-02-10T10:48:20.688Z,0.97
2019-02-10T10:50:49.766Z,2.13
2019-02-10T10:53:18.850Z,1.17
2019-02-10T10:55:47.911Z,0.80
2019-02-10T10:58:16.936Z,1.17
2019-02-10T11:00:45.938Z,1.13
2019-02-10T11:03:14.991Z,1.30
2019-02-10T11:05:44.014Z,2.50
2019-02-10T11:08:14.140Z,1.10
2019-02-10T11:10:43.197Z,1.10
2019-02-10T11:13:12.358Z,0.93
2019-02-10T11:15:41.410Z,1.00
2019-02-10T11:18:10.503Z,0.90
2019-02-10T11:20:39.678Z,3.07
2019-02-10T11:23:08.719Z,1.03
2019-02-10T11:25:37.759Z,0.80
2019-02-10T11:28:06.821Z,0.80
2019-02-10T11:30:35.902Z,1.00
2019-02-10T11:33:05.053Z,1.10
2019-02-10T11:35:34.113Z,0.80
2019-02-10T11:38:03.159Z,0.80
2019-02-10T11:40:32.250Z,2.50
2019-02-10T11:43:01.402Z,0.93
2019-02-10T11:45:30.592Z,1.07
2019-02-10T11:47:59.685Z,0.97
2019-02-10T11:50:28.784Z,1.30
2019-02-10T11:53:03.051Z,0.40
2019-02-10T11:55:32.049Z,0.70
2019-02-10T11:58:02.221Z,0.63
2019-02-10T12:00:31.231Z,0.70
2019-02-10T12:03:00.262Z,2.77
2019-02-10T12:05:29.281Z,0.87
2019-02-10T12:07:58.328Z,1.00
2019-02-10T12:10:27.368Z,0.73
2019-02-10T12:12:56.468Z,0.50
2019-02-10T12:15:25.553Z,0.67
2019-02-10T12:17:54.601Z,2.77
2019-02-10T12:20:23.630Z,1.93
2019-02-10T12:22:52.722Z,0.97
2019-02-10T12:25:21.815Z,1.70
2019-02-10T12:27:50.919Z,0.80
2019-02-10T12:30:19.933Z,0.77
2019-02-10T12:32:48.976Z,0.70
2019-02-10T12:35:29.358Z,3.30
2019-02-10T18:39:48.220Z,3.37
2019-02-10T18:42:45.391Z,3.60
2019-02-10T18:45:29.394Z,5.20
2019-02-10T18:48:20.213Z,3.90
2019-02-10T18:50:56.866Z,3.53
2019-02-10T18:53:43.517Z,4.07
2019-02-10T18:56:49.678Z,3.10
2019-02-10T18:59:40.419Z,3.67
2019-02-10T19:02:27.808Z,6.43
2019-02-10T19:05:08.893Z,4.10
2019-02-10T19:07:56.938Z,4.70
2019-02-10T19:10:42.907Z,4.20
2019-02-10T19:13:22.327Z,3.60
2019-02-10T19:15:59.149Z,3.67
2019-02-10T19:18:49.979Z,3.73
2019-02-10T19:21:35.310Z,3.90
2019-02-10T19:24:29.114Z,3.53
2019-02-10T19:27:11.357Z,3.80
2019-02-10T19:29:51.460Z,4.43
2019-02-10T19:32:48.300Z,4.13
2019-02-10T19:35:32.114Z,4.27
2019-02-10T19:38:14.074Z,3.90
2019-02-10T19:40:49.963Z,4.27
2019-02-10T19:43:46.871Z,4.50
2019-02-10T19:46:37.423Z,4.23
2019-02-10T19:49:23.835Z,3.70
2019-02-10T19:52:20.726Z,3.70
2019-02-10T19:55:08.732Z,3.30
2019-02-10T19:57:56.725Z,3.67
2019-02-10T20:00:43.511Z,3.13
2019-02-10T20:03:43.665Z,2.77
2019-02-10T20:06:24.697Z,2.40
2019-02-10T20:09:13.015Z,2.27
2019-02-10T20:12:04.184Z,1.83
2019-02-10T20:14:40.711Z,3.00
2019-02-10T20:17:27.316Z,2.87
2019-02-10T20:20:13.873Z,2.80
2019-02-10T20:22:53.517Z,2.30
2019-02-10T20:25:45.595Z,2.20
2019-02-10T20:28:39.726Z,2.50
2019-02-10T20:31:34.518Z,2.20
2019-02-10T20:34:31.344Z,2.13
2019-02-10T20:37:17.774Z,2.30
2019-02-10T20:40:00.415Z,2.20
2019-02-10T20:42:45.620Z,2.23
2019-02-10T20:45:30.951Z,2.00
2019-02-10T20:48:25.035Z,2.40
2019-02-10T20:51:28.267Z,1.77
2019-02-10T20:54:04.459Z,2.60
2019-02-10T20:56:46.287Z,2.37
2019-02-10T20:59:44.280Z,2.60
2019-02-10T21:02:44.125Z,2.83
2019-02-10T21:05:20.643Z,2.20
2019-02-10T21:07:57.387Z,2.87
2019-02-10T21:10:48.179Z,2.70
2019-02-10T21:13:36.163Z,3.57
2019-02-10T21:16:39.379Z,2.50
2019-02-10T21:19:21.208Z,2.63
2019-02-10T21:22:12.198Z,2.37
2019-02-10T21:24:58.844Z,2.10
2019-02-10T21:27:49.638Z,1.80
2019-02-10T21:30:29.109Z,1.87
2019-02-10T21:33:05.235Z,1.30
2019-02-10T21:35:51.654Z,1.00
2019-02-10T21:38:28.621Z,1.20
2019-02-10T21:41:25.741Z,1.40
2019-02-10T21:44:13.725Z,1.70
2019-02-10T21:46:59.613Z,1.70
2019-02-10T21:49:29.176Z,1.50
2019-02-10T21:51:58.218Z,1.40
2019-02-10T21:54:27.271Z,2.43
2019-02-10T21:56:56.292Z,1.93
2019-02-10T21:59:25.280Z,1.83
2019-02-10T22:01:54.318Z,2.80
2019-02-10T22:04:23.357Z,2.30
2019-02-10T22:06:52.393Z,2.20
2019-02-10T22:09:21.462Z,1.50
2019-02-10T22:11:50.512Z,1.30
2019-02-10T22:14:19.621Z,1.67
2019-02-10T22:16:48.726Z,1.47
2019-02-10T22:19:17.733Z,2.07
2019-02-10T22:21:46.828Z,1.53
2019-02-10T22:24:15.885Z,2.03
2019-02-10T22:26:44.927Z,1.13
2019-02-10T22:29:13.972Z,1.83
2019-02-10T22:31:43.059Z,1.50
2019-02-10T22:34:12.377Z,1.57
2019-02-10T22:36:41.390Z,1.37
2019-02-10T22:39:10.460Z,1.60
2019-02-10T22:41:39.500Z,1.90
2019-02-10T22:44:08.527Z,2.20
2019-02-10T22:46:37.574Z,2.70
2019-02-10T22:49:06.619Z,2.27
2019-02-10T22:51:35.657Z,2.43
2019-02-10T22:54:04.678Z,2.50
2019-02-10T22:56:33.769Z,2.53
2019-02-10T22:59:02.820Z,2.27
2019-02-10T23:01:31.878Z,2.00
2019-02-10T23:04:00.931Z,2.50
2019-02-10T23:06:29.989Z,1.80
2019-02-10T23:08:59.012Z,1.90
2019-02-10T23:11:28.087Z,1.70
2019-02-10T23:13:57.984Z,1.77
2019-02-10T23:16:27.092Z,1.80
2019-02-10T23:18:56.121Z,1.63
2019-02-10T23:21:25.194Z,1.60
2019-02-10T23:23:54.226Z,1.70
2019-02-10T23:26:23.305Z,1.90
2019-02-10T23:28:52.323Z,1.80
2019-02-10T23:31:21.383Z,2.10
2019-02-10T23:33:50.471Z,2.50
2019-02-10T23:36:19.510Z,3.87
2019-02-10T23:38:48.533Z,2.97
2019-02-10T23:41:17.643Z,3.50
2019-02-10T23:43:46.695Z,3.47
2019-02-10T23:46:15.732Z,3.80
2019-02-10T23:48:44.766Z,3.43
2019-02-10T23:51:13.809Z,3.67
2019-02-10T23:53:42.853Z,3.93
2019-02-10T23:56:11.899Z,3.77
2019-02-10T23:58:40.941Z,3.77
